Time;durP1;ratioP1;P1;durP2;ratioP2;P2;SDS_P1;SDS_P2;PMS_P1;PMS_P2;Temp;Humidity;BMP_temperature;BMP_pressure;BME280_temperature;BME280_humidity;BME280_pressure;Samples;Min_cycle;Max_cycle;Signal;HPM_P1;HPM_P2
2023/01/11 05:08:16;;;;;;;0.30;0.30;;;9.50;99.90;;;;;;4935315;29;20227;-66
2023/01/11 05:10:42;;;;;;;1.03;0.50;;;9.40;99.90;;;;;;4936954;29;20174;-66
2023/01/11 05:13:07;;;;;;;0.57;0.57;;;9.40;99.90;;;;;;4936275;29;20248;-67
2023/01/11 05:15:33;;;;;;;0.57;0.50;;;9.30;99.90;;;;;;4936469;29;20208;-67
2023/01/11 05:17:59;;;;;;;0.65;0.30;;;9.30;99.90;;;;;;4937114;29;20184;-67
2023/01/11 05:20:24;;;;;;;0.30;0.30;;;9.30;99.90;;;;;;4936550;29;20244;-68
2023/01/11 05:22:50;;;;;;;0.30;0.20;;;9.30;99.90;;;;;;4936069;29;20181;-67
2023/01/11 05:25:16;;;;;;;0.40;0.40;;;9.30;99.90;;;;;;4936152;29;20190;-68
2023/01/11 05:27:41;;;;;;;0.30;0.30;;;9.30;99.90;;;;;;4936401;29;20674;-67
2023/01/11 05:30:07;;;;;;;0.30;0.30;;;9.30;99.90;;;;;;4936417;29;20551;-67
2023/01/11 05:32:33;;;;;;;0.40;0.35;;;9.30;99.90;;;;;;4936420;29;20205;-66
2023/01/11 05:34:58;;;;;;;0.90;0.90;;;9.30;99.90;;;;;;4934593;29;20228;-67
2023/01/11 05:37:24;;;;;;;0.40;0.33;;;9.20;99.90;;;;;;4936557;29;20170;-66
2023/01/11 05:39:49;;;;;;;1.07;0.60;;;9.20;99.90;;;;;;4936054;29;20232;-66
2023/01/11 05:42:15;;;;;;;0.30;0.30;;;9.20;99.90;;;;;;4936152;29;20181;-67
2023/01/11 05:47:25;;;;;;;0.40;0.40;;;9.20;99.90;;;;;;4935992;29;20185;-66
2023/01/11 05:49:50;;;;;;;0.50;0.40;;;9.20;99.90;;;;;;4936185;29;20632;-69
2023/01/11 05:52:16;;;;;;;0.43;0.43;;;9.20;99.90;;;;;;4936142;29;20173;-66
2023/01/11 05:54:42;;;;;;;0.80;0.53;;;9.30;99.90;;;;;;4935509;29;20250;-68
2023/01/11 05:57:10;;;;;;;1.03;0.50;;;9.30;99.90;;;;;;4935424;29;20228;-65
2023/01/11 05:59:36;;;;;;;0.40;0.40;;;9.30;99.90;;;;;;4936684;29;20180;-66
2023/01/11 06:02:01;;;;;;;0.40;0.40;;;9.30;99.90;;;;;;4939578;29;20209;-66
2023/01/11 06:04:27;;;;;;;0.57;0.37;;;9.30;99.90;;;;;;4939065;29;20193;-68
2023/01/11 06:06:52;;;;;;;0.97;0.40;;;9.40;99.90;;;;;;4939699;29;20197;-66
2023/01/11 06:09:18;;;;;;;0.57;0.33;;;9.40;99.90;;;;;;4939751;29;20693;-68
2023/01/11 06:11:43;;;;;;;0.60;0.40;;;9.40;99.90;;;;;;4939570;29;20205;-67
2023/01/11 06:14:09;;;;;;;0.50;0.50;;;9.50;99.90;;;;;;4939168;29;20197;-68
2023/01/11 06:16:35;;;;;;;0.50;0.50;;;9.50;99.90;;;;;;4939601;29;20201;-67
2023/01/11 06:19:00;;;;;;;0.47;0.47;;;9.50;99.90;;;;;;4939123;29;20189;-67
2023/01/11 06:21:26;;;;;;;0.40;0.40;;;9.40;99.90;;;;;;4939285;29;20190;-67
2023/01/11 06:23:52;;;;;;;0.50;0.40;;;9.40;99.90;;;;;;4939213;29;20233;-68
2023/01/11 06:26:20;;;;;;;0.47;0.40;;;9.40;99.90;;;;;;4922260;29;20660;-70
2023/01/11 06:28:46;;;;;;;0.50;0.50;;;9.30;99.90;;;;;;4939395;29;20177;-68
2023/01/11 06:31:12;;;;;;;0.50;0.50;;;9.30;99.90;;;;;;4939431;29;20260;-69
2023/01/11 06:33:38;;;;;;;0.83;0.70;;;9.30;99.90;;;;;;4938583;29;20264;-66
2023/01/11 06:36:09;;;;;;;0.50;0.50;;;9.20;99.90;;;;;;4939199;29;20209;-66
2023/01/11 06:38:35;;;;;;;0.40;0.40;;;9.20;99.90;;;;;;4939077;29;20220;-68
2023/01/11 06:41:03;;;;;;;0.45;0.45;;;9.20;99.90;;;;;;4939213;29;20655;-69
2023/01/11 06:43:30;;;;;;;1.02;0.50;;;9.20;99.90;;;;;;4938386;29;20189;-67
2023/01/11 06:45:56;;;;;;;0.80;0.50;;;9.20;99.90;;;;;;4918758;29;20182;-68
2023/01/11 06:48:22;;;;;;;1.20;1.10;;;9.20;99.90;;;;;;4926521;29;20174;-68
2023/01/11 06:50:49;;;;;;;0.40;0.40;;;9.30;99.90;;;;;;4933069;29;20200;-67
2023/01/11 06:53:15;;;;;;;0.40;0.40;;;9.30;99.90;;;;;;4923631;29;20170;-66
2023/01/11 06:55:40;;;;;;;1.27;1.23;;;9.30;99.90;;;;;;4919700;29;20691;-65
2023/01/11 06:58:06;;;;;;;0.60;0.43;;;9.30;99.90;;;;;;4920187;29;20456;-67
2023/01/11 07:00:32;;;;;;;0.73;0.73;;;9.30;99.90;;;;;;4920024;29;20284;-66
2023/01/11 07:03:02;;;;;;;0.50;0.40;;;9.30;99.90;;;;;;4919450;29;20174;-66
2023/01/11 07:05:27;;;;;;;0.90;0.90;;;9.30;99.90;;;;;;4919675;29;20200;-67
2023/01/11 07:07:53;;;;;;;0.70;0.70;;;9.30;99.90;;;;;;4919664;29;20704;-66
2023/01/11 07:10:19;;;;;;;0.43;0.43;;;9.30;99.90;;;;;;4919097;29;20217;-68
2023/01/11 07:12:44;;;;;;;0.30;0.30;;;9.20;99.90;;;;;;4918299;29;20266;-67
2023/01/11 07:15:10;;;;;;;0.47;0.47;;;9.30;99.90;;;;;;4922954;29;20202;-67
2023/01/11 07:17:36;;;;;;;0.50;0.50;;;9.20;99.90;;;;;;4904500;29;20197;-67
2023/01/11 07:20:02;;;;;;;0.43;0.43;;;9.30;99.90;;;;;;4919442;29;20529;-68
2023/01/11 07:22:29;;;;;;;0.52;0.50;;;9.20;99.90;;;;;;4919475;29;20449;-68
2023/01/11 07:24:54;;;;;;;0.50;0.50;;;9.30;99.90;;;;;;4919116;29;20202;-67
2023/01/11 07:27:20;;;;;;;0.40;0.40;;;9.30;99.90;;;;;;4919312;29;20233;-68
2023/01/11 07:29:46;;;;;;;0.40;0.40;;;9.30;99.90;;;;;;4919373;29;20170;-68
2023/01/11 07:32:12;;;;;;;0.50;0.50;;;9.40;99.90;;;;;;4902181;29;20337;-67
2023/01/11 07:34:38;;;;;;;0.30;0.30;;;9.40;99.90;;;;;;4918680;29;20333;-69
2023/01/11 07:37:04;;;;;;;2.20;0.53;;;9.40;99.90;;;;;;4919081;29;20280;-68
2023/01/11 07:39:29;;;;;;;1.20;0.70;;;9.40;99.90;;;;;;4919246;29;20176;-67
2023/01/11 07:44:39;;;;;;;0.40;0.40;;;9.50;99.90;;;;;;4919290;29;20208;-66
2023/01/11 07:47:05;;;;;;;0.57;0.50;;;9.50;99.90;;;;;;4936705;29;20177;-68
2023/01/11 07:49:31;;;;;;;2.43;0.87;;;9.50;99.90;;;;;;4937889;29;20687;-68
2023/01/11 07:51:56;;;;;;;1.88;1.45;;;9.60;99.90;;;;;;4937905;29;20181;-68
2023/01/11 07:54:23;;;;;;;2.30;1.90;;;9.70;99.90;;;;;;4934228;29;20698;-66
2023/01/11 07:56:49;;;;;;;4.38;1.88;;;9.70;99.90;;;;;;4902562;29;20206;-65
2023/01/11 07:59:15;;;;;;;1.33;1.23;;;9.80;99.90;;;;;;4918548;29;20178;-66
2023/01/11 08:01:40;;;;;;;0.67;0.67;;;10.00;99.90;;;;;;4930021;29;20426;-66
2023/01/11 08:04:10;;;;;;;1.63;1.30;;;10.10;99.90;;;;;;4929631;29;20218;-66
2023/01/11 08:06:36;;;;;;;0.60;0.60;;;10.20;99.90;;;;;;4908538;29;20190;-66
2023/01/11 08:09:02;;;;;;;0.50;0.50;;;10.30;99.90;;;;;;4922246;29;20543;-66
2023/01/11 08:16:55;;;;;;;0.50;0.50;;;10.50;99.90;;;;;;4936488;29;20217;-67
2023/01/11 08:19:21;;;;;;;0.30;0.30;;;10.60;99.90;;;;;;4936781;29;20181;-67
2023/01/11 08:21:48;;;;;;;0.40;0.40;;;10.60;99.90;;;;;;4927507;29;20170;-67
2023/01/11 08:24:14;;;;;;;1.67;0.50;;;10.70;99.90;;;;;;4936710;29;20193;-68
2023/01/11 08:26:39;;;;;;;0.63;0.63;;;10.70;99.90;;;;;;4937189;29;20662;-67
2023/01/11 08:29:05;;;;;;;0.40;0.40;;;10.70;99.90;;;;;;4931349;29;20183;-67
2023/01/11 08:31:30;;;;;;;0.63;0.50;;;10.80;99.90;;;;;;4918567;29;20187;-66
2023/01/11 08:33:56;;;;;;;0.47;0.47;;;10.80;99.90;;;;;;4923871;29;20205;-67
2023/01/11 08:36:23;;;;;;;0.37;0.37;;;10.80;99.90;;;;;;4935959;29;20255;-67
2023/01/11 08:38:52;;;;;;;0.60;0.50;;;10.90;99.90;;;;;;4924460;29;20178;-66
2023/01/11 08:41:18;;;;;;;0.50;0.50;;;10.90;99.90;;;;;;4918926;29;20777;-67
2023/01/11 08:43:43;;;;;;;0.60;0.60;;;10.90;99.90;;;;;;4918424;29;20198;-68
2023/01/11 08:46:09;;;;;;;0.50;0.50;;;11.00;99.90;;;;;;4925380;29;20687;-68
2023/01/11 08:48:35;;;;;;;1.27;1.15;;;11.00;99.90;;;;;;4934665;29;20225;-66
2023/01/11 08:51:01;;;;;;;0.60;0.60;;;11.00;99.90;;;;;;4930050;29;20182;-67
2023/01/11 08:53:26;;;;;;;0.53;0.53;;;10.90;99.90;;;;;;4924347;29;20271;-65
2023/01/11 08:55:52;;;;;;;1.30;0.70;;;10.90;99.90;;;;;;4901601;29;20713;-67
2023/01/11 08:58:19;;;;;;;0.60;0.60;;;10.90;99.90;;;;;;4925310;29;20533;-66
2023/01/11 09:00:45;;;;;;;0.90;0.90;;;10.80;99.90;;;;;;4924375;29;20206;-67
2023/01/11 09:03:11;;;;;;;3.58;0.80;;;10.80;99.90;;;;;;4900188;29;20203;-66
2023/01/11 09:05:38;;;;;;;0.63;0.63;;;10.70;99.90;;;;;;4918502;29;22130;-67
2023/01/11 09:08:05;;;;;;;1.77;0.80;;;10.70;99.90;;;;;;4923659;29;20649;-66
2023/01/11 09:10:31;;;;;;;0.70;0.70;;;10.60;99.90;;;;;;4934312;29;20189;-66
2023/01/11 09:12:57;;;;;;;0.60;0.60;;;10.60;99.90;;;;;;4920031;29;20182;-67
2023/01/11 09:15:23;;;;;;;1.00;0.60;;;10.60;99.90;;;;;;4917246;29;20461;-68
2023/01/11 09:17:49;;;;;;;0.40;0.40;;;10.70;99.90;;;;;;4920487;29;20179;-67
2023/01/11 09:20:16;;;;;;;1.13;0.60;;;10.60;99.90;;;;;;4920977;29;20717;-67
2023/01/11 09:22:48;;;;;;;1.33;0.90;;;10.60;99.90;;;;;;4920360;29;20229;-67
2023/01/11 09:25:15;;;;;;;0.70;0.70;;;10.60;99.90;;;;;;4932537;29;20206;-67
2023/01/11 09:27:48;;;;;;;0.70;0.65;;;10.60;99.90;;;;;;4921115;29;20209;-67
2023/01/11 09:30:16;;;;;;;0.93;0.60;;;10.60;99.90;;;;;;4934146;29;20182;-67
2023/01/11 09:32:42;;;;;;;0.50;0.50;;;10.60;99.90;;;;;;4932538;29;20187;-67
2023/01/11 09:35:08;;;;;;;0.90;0.67;;;10.70;99.90;;;;;;4923583;29;20664;-66
2023/01/11 09:37:40;;;;;;;0.65;0.65;;;10.70;99.90;;;;;;4918008;29;20187;-67
2023/01/11 09:40:11;;;;;;;0.60;0.60;;;10.70;99.90;;;;;;4905353;29;20248;-66
2023/01/11 09:42:41;;;;;;;0.95;0.95;;;10.70;99.90;;;;;;4944211;29;20906;-67
2023/01/11 09:45:23;;;;;;;1.05;1.02;;;10.70;99.90;;;;;;4916793;29;20213;-67
2023/01/11 09:47:52;;;;;;;1.10;0.85;;;10.70;99.90;;;;;;4920695;29;20245;-66
2023/01/11 09:50:25;;;;;;;0.90;0.70;;;10.70;99.90;;;;;;4917022;29;20172;-67
2023/01/11 09:53:03;;;;;;;2.20;0.80;;;10.70;99.90;;;;;;4911830;29;20296;-67
2023/01/11 09:55:41;;;;;;;0.98;0.85;;;10.70;99.90;;;;;;4907355;29;20242;-67
2023/01/11 09:58:31;;;;;;;0.80;0.50;;;10.70;99.90;;;;;;4927083;29;20174;-68
2023/01/11 10:01:16;;;;;;;0.80;0.70;;;10.80;99.90;;;;;;4919096;29;20455;-67
2023/01/11 10:04:14;;;;;;;1.00;0.60;;;10.80;99.90;;;;;;4916395;29;20870;-68
2023/01/11 10:07:13;;;;;;;0.90;0.90;;;10.80;99.90;;;;;;4925535;29;20191;-67
2023/01/11 10:10:13;;;;;;;1.48;0.88;;;10.80;99.90;;;;;;4928956;29;20187;-68
2023/01/11 10:12:55;;;;;;;0.70;0.70;;;10.90;99.90;;;;;;4913017;29;20193;-68
2023/01/11 10:15:30;;;;;;;0.70;0.70;;;10.90;99.90;;;;;;4927882;29;20232;-67
2023/01/11 10:18:05;;;;;;;0.60;0.60;;;10.90;99.90;;;;;;4935961;29;20423;-67
2023/01/11 10:20:38;;;;;;;1.30;1.05;;;10.90;99.90;;;;;;4918576;29;22428;-63
2023/01/11 10:23:28;;;;;;;0.60;0.60;;;11.00;99.90;;;;;;4930811;29;20256;-66
2023/01/11 10:25:58;;;;;;;0.70;0.70;;;11.00;99.90;;;;;;4927740;29;20461;-65
2023/01/11 10:28:41;;;;;;;0.70;0.70;;;11.00;99.90;;;;;;4916655;29;20192;-65
2023/01/11 10:31:43;;;;;;;1.08;0.65;;;11.10;99.90;;;;;;4923066;29;20278;-66
2023/01/11 10:37:26;;;;;;;0.88;0.80;;;11.10;99.90;;;;;;4935804;29;20207;-65
2023/01/11 10:43:20;;;;;;;0.83;0.83;;;11.20;99.90;;;;;;4924901;29;20185;-65
2023/01/11 10:46:04;;;;;;;0.80;0.80;;;11.20;99.90;;;;;;4929845;29;20785;-66
2023/01/11 10:48:36;;;;;;;0.70;0.70;;;11.30;99.90;;;;;;4928027;29;20194;-66
2023/01/11 10:51:28;;;;;;;1.57;1.50;;;11.30;99.90;;;;;;4926517;29;20231;-65
2023/01/11 10:54:18;;;;;;;0.60;0.50;;;11.30;99.90;;;;;;4934150;29;20539;-66
2023/01/11 10:57:07;;;;;;;0.77;0.77;;;11.40;99.90;;;;;;4936860;29;20557;-64
2023/01/11 11:00:03;;;;;;;0.70;0.70;;;11.50;99.90;;;;;;4935433;29;21003;-64
2023/01/11 11:03:26;;;;;;;0.47;0.47;;;11.60;99.90;;;;;;4860939;29;20224;-66
2023/01/11 11:06:03;;;;;;;0.50;0.50;;;11.60;99.90;;;;;;4835101;29;20755;-67
2023/01/11 11:08:50;;;;;;;3.13;0.90;;;11.70;99.90;;;;;;4830091;29;20468;-65
2023/01/11 11:11:35;;;;;;;1.40;0.60;;;11.80;99.90;;;;;;4859423;29;20432;-68
2023/01/11 11:14:19;;;;;;;0.60;0.60;;;11.80;99.90;;;;;;4867058;29;20206;-66
2023/01/11 11:16:54;;;;;;;0.73;0.73;;;11.90;99.90;;;;;;4860747;29;20873;-66
2023/01/11 11:19:25;;;;;;;0.63;0.40;;;11.90;99.90;;;;;;4866108;29;20429;-66
2023/01/11 11:21:54;;;;;;;0.40;0.40;;;11.90;99.90;;;;;;4866697;29;20410;-66
2023/01/11 11:24:47;;;;;;;0.70;0.40;;;11.90;99.90;;;;;;4860733;29;20442;-67
2023/01/11 11:27:48;;;;;;;0.40;0.40;;;12.00;99.90;;;;;;4869942;29;20452;-68
2023/01/11 11:30:24;;;;;;;0.60;0.53;;;12.00;99.90;;;;;;4840558;29;20464;-68
2023/01/11 11:32:56;;;;;;;0.70;0.53;;;12.00;99.90;;;;;;4860110;29;20794;-66
2023/01/11 11:35:36;;;;;;;0.50;0.50;;;12.00;99.90;;;;;;4860876;29;20887;-66
2023/01/11 11:38:02;;;;;;;0.33;0.33;;;12.10;99.90;;;;;;4861003;29;20434;-67
2023/01/11 11:40:32;;;;;;;0.40;0.40;;;12.10;99.90;;;;;;4919172;29;20442;-67
2023/01/11 11:43:19;;;;;;;0.60;0.60;;;12.10;99.90;;;;;;4918979;29;20416;-67
2023/01/11 11:45:54;;;;;;;0.63;0.63;;;12.10;99.90;;;;;;4919115;29;20458;-67
2023/01/11 11:48:20;;;;;;;1.13;0.60;;;12.10;99.90;;;;;;4919126;29;20497;-68
2023/01/11 11:50:48;;;;;;;0.50;0.40;;;12.10;99.90;;;;;;4926211;29;20416;-67
2023/01/11 11:53:35;;;;;;;0.50;0.50;;;12.20;99.90;;;;;;4937624;29;20919;-68
2023/01/11 11:56:14;;;;;;;1.53;0.47;;;12.20;99.90;;;;;;4937876;29;20465;-67
2023/01/11 11:58:41;;;;;;;0.60;0.40;;;12.30;99.90;;;;;;4919195;29;20423;-67
2023/01/11 12:01:20;;;;;;;0.50;0.50;;;12.40;99.90;;;;;;4919034;29;20418;-68
2023/01/11 12:03:47;;;;;;;0.60;0.60;;;12.40;99.90;;;;;;4918552;29;20505;-67
2023/01/11 12:06:22;;;;;;;0.63;0.63;;;12.30;99.90;;;;;;4918494;29;20432;-69
2023/01/11 12:08:48;;;;;;;0.60;0.60;;;12.30;99.90;;;;;;4918729;29;20412;-68
2023/01/11 12:11:20;;;;;;;0.60;0.50;;;12.30;99.90;;;;;;4933717;29;20519;-67
2023/01/11 12:14:00;;;;;;;0.60;0.60;;;12.30;99.90;;;;;;4936487;29;20454;-68
2023/01/11 12:16:30;;;;;;;0.60;0.60;;;12.30;99.90;;;;;;4919144;29;20468;-68
2023/01/11 12:18:56;;;;;;;0.50;0.50;;;12.20;99.90;;;;;;4925541;29;20423;-68
2023/01/11 12:21:24;;;;;;;1.37;1.27;;;12.20;99.90;;;;;;4927291;29;20432;-69
2023/01/11 12:24:26;;;;;;;0.87;0.87;;;12.20;99.90;;;;;;4918131;29;20529;-68
2023/01/11 12:27:05;;;;;;;0.60;0.60;;;12.20;99.90;;;;;;4870877;29;20825;-68
2023/01/11 12:29:43;;;;;;;0.60;0.60;;;12.20;99.90;;;;;;4911598;29;20443;-69
2023/01/11 12:32:30;;;;;;;0.77;0.77;;;12.20;99.90;;;;;;4931406;29;20428;-69
2023/01/11 12:35:12;;;;;;;0.50;0.50;;;12.20;99.90;;;;;;4929640;29;20808;-70
2023/01/11 12:38:09;;;;;;;0.30;0.30;;;12.20;99.90;;;;;;4935975;29;20475;-69
2023/01/11 12:40:49;;;;;;;3.00;1.00;;;12.10;99.90;;;;;;4926978;29;20424;-69
2023/01/11 12:43:35;;;;;;;0.60;0.60;;;12.10;99.90;;;;;;4934289;29;20861;-70
2023/01/11 12:46:30;;;;;;;0.80;0.80;;;12.10;99.90;;;;;;4930567;29;20440;-70
2023/01/11 12:49:17;;;;;;;0.70;0.50;;;12.10;99.90;;;;;;4928238;29;20524;-71
2023/01/11 12:52:24;;;;;;;0.50;0.50;;;12.20;99.90;;;;;;4924863;29;20594;-69
2023/01/11 12:55:19;;;;;;;0.50;0.50;;;12.20;99.90;;;;;;4923263;29;20564;-71
2023/01/11 12:57:59;;;;;;;0.70;0.70;;;12.20;99.90;;;;;;4860838;29;20438;-73
2023/01/11 13:00:54;;;;;;;1.40;1.30;;;12.20;99.90;;;;;;4948193;29;20466;-71
2023/01/11 13:03:33;;;;;;;0.73;0.70;;;12.20;99.90;;;;;;4911681;29;20449;-72
2023/01/11 13:06:23;;;;;;;0.70;0.70;;;12.30;99.90;;;;;;4900447;29;20432;-71
2023/01/11 13:08:58;;;;;;;0.63;0.60;;;12.20;99.90;;;;;;4928272;29;20426;-72
2023/01/11 13:11:42;;;;;;;0.50;0.50;;;12.20;99.90;;;;;;4935609;29;20523;-74
2023/01/11 13:14:26;;;;;;;0.70;0.70;;;12.10;99.90;;;;;;4932683;29;20440;-73
2023/01/11 13:17:21;;;;;;;0.70;0.70;;;12.10;99.90;;;;;;4936148;29;20825;-68
2023/01/11 13:20:13;;;;;;;0.67;0.67;;;12.00;99.90;;;;;;4928675;29;20476;-67
2023/01/11 13:22:45;;;;;;;1.73;1.00;;;12.00;99.90;;;;;;4932732;29;20428;-69
2023/01/11 13:25:32;;;;;;;0.80;0.80;;;12.00;99.90;;;;;;4935397;29;20437;-72
2023/01/11 13:28:02;;;;;;;0.70;0.70;;;12.00;99.90;;;;;;4931777;29;20428;-70
2023/01/11 13:30:29;;;;;;;1.07;0.97;;;12.00;99.90;;;;;;4920399;29;20835;-68
2023/01/11 13:33:11;;;;;;;0.93;0.93;;;12.00;99.90;;;;;;4916828;29;20444;-70
2023/01/11 13:35:42;;;;;;;1.10;1.00;;;12.00;99.90;;;;;;4916996;29;20527;-72
2023/01/11 13:38:59;;;;;;;0.90;0.77;;;12.00;99.90;;;;;;4917910;29;20429;-67
2023/01/11 13:41:52;;;;;;;1.37;1.10;;;11.90;99.90;;;;;;4923371;29;20444;-68
2023/01/11 13:44:23;;;;;;;1.13;1.07;;;11.90;99.90;;;;;;4924133;29;20452;-69
2023/01/11 13:46:56;;;;;;;1.43;1.33;;;11.90;99.90;;;;;;4900053;29;20429;-69
2023/01/11 13:49:40;;;;;;;0.60;0.60;;;11.90;99.90;;;;;;4926751;29;20478;-69
2023/01/11 13:52:13;;;;;;;0.60;0.60;;;11.80;99.90;;;;;;4915748;29;20487;-69
2023/01/11 13:54:55;;;;;;;1.43;1.17;;;11.80;99.90;;;;;;4916594;29;20457;-69
2023/01/11 13:57:26;;;;;;;1.00;0.97;;;11.80;99.90;;;;;;4917991;29;20789;-68
2023/01/11 13:59:58;;;;;;;0.73;0.73;;;11.80;99.90;;;;;;4931979;29;20459;-69
2023/01/11 14:02:41;;;;;;;1.70;1.20;;;11.80;99.90;;;;;;4931123;29;20434;-68
2023/01/11 14:05:12;;;;;;;0.80;0.80;;;11.70;99.90;;;;;;4933889;29;20952;-69
2023/01/11 14:08:02;;;;;;;0.60;0.60;;;11.70;99.90;;;;;;4925693;29;20689;-67
2023/01/11 14:11:16;;;;;;;0.70;0.70;;;11.60;99.90;;;;;;4934819;29;20427;-69
2023/01/11 14:14:13;;;;;;;1.10;1.00;;;11.50;99.90;;;;;;4897236;29;20510;-69
2023/01/11 14:17:04;;;;;;;1.90;0.73;;;11.50;99.90;;;;;;4916997;29;20806;-70
2023/01/11 14:19:46;;;;;;;1.33;1.23;;;11.40;99.90;;;;;;4916823;29;20405;-69
2023/01/11 14:22:18;;;;;;;0.63;0.63;;;11.40;99.90;;;;;;4920046;29;20878;-69
2023/01/11 14:25:22;;;;;;;1.17;0.90;;;11.30;99.90;;;;;;4903214;29;20969;-70
2023/01/11 14:28:23;;;;;;;1.00;0.90;;;11.30;99.90;;;;;;4905779;29;20825;-69
2023/01/11 14:31:09;;;;;;;0.70;0.70;;;11.20;99.90;;;;;;4920534;29;20459;-71
2023/01/11 14:34:07;;;;;;;3.70;0.60;;;11.20;99.90;;;;;;4920119;29;20414;-70
2023/01/11 14:36:44;;;;;;;0.65;0.60;;;11.20;99.90;;;;;;4920309;29;20538;-69
2023/01/11 14:39:27;;;;;;;0.95;0.70;;;11.10;99.90;;;;;;4920214;29;20744;-70
2023/01/11 14:42:20;;;;;;;0.70;0.70;;;11.10;99.90;;;;;;4920345;29;20179;-70
2023/01/11 14:45:15;;;;;;;0.43;0.40;;;11.00;99.90;;;;;;4919948;29;20453;-70
2023/01/11 14:47:56;;;;;;;0.50;0.50;;;11.00;99.90;;;;;;4920097;29;20740;-70
2023/01/11 14:50:51;;;;;;;0.77;0.77;;;11.10;99.90;;;;;;4920113;29;20170;-70
2023/01/11 14:53:22;;;;;;;1.25;1.15;;;11.00;99.90;;;;;;4919782;29;20917;-71
2023/01/11 14:55:48;;;;;;;0.50;0.50;;;10.90;99.90;;;;;;4920349;29;20211;-68
2023/01/11 14:58:28;;;;;;;0.93;0.63;;;10.90;99.90;;;;;;4919967;29;20179;-70
2023/01/11 15:00:53;;;;;;;0.52;0.52;;;10.90;99.90;;;;;;4903132;29;20174;-69
2023/01/11 15:03:19;;;;;;;1.60;0.73;;;10.90;99.90;;;;;;4919797;29;20591;-68
2023/01/11 15:06:12;;;;;;;0.38;0.38;;;10.80;99.90;;;;;;4919732;29;20669;-70
2023/01/11 15:08:40;;;;;;;0.60;0.60;;;10.80;99.90;;;;;;4919767;29;20281;-69
2023/01/11 15:11:36;;;;;;;1.58;0.50;;;10.80;99.90;;;;;;4919776;29;20228;-70
2023/01/11 15:14:26;;;;;;;0.93;0.70;;;10.70;99.90;;;;;;4919350;29;20286;-67
2023/01/11 15:19:41;;;;;;;0.98;0.55;;;10.70;99.90;;;;;;4933085;29;20221;-68
2023/01/11 15:22:36;;;;;;;0.80;0.53;;;10.80;99.90;;;;;;4937058;29;20290;-68
2023/01/11 15:25:27;;;;;;;1.42;0.50;;;10.70;99.90;;;;;;4936215;29;20451;-67
2023/01/11 15:27:53;;;;;;;0.50;0.45;;;10.70;99.90;;;;;;4919416;29;20271;-68
2023/01/11 15:30:33;;;;;;;1.20;0.50;;;10.60;99.90;;;;;;4924976;29;20264;-69
2023/01/11 15:33:17;;;;;;;0.50;0.50;;;10.60;99.90;;;;;;4926669;29;20233;-69
2023/01/11 15:35:54;;;;;;;0.55;0.55;;;10.50;99.90;;;;;;4935925;29;20208;-69
2023/01/11 15:38:35;;;;;;;0.40;0.40;;;10.50;99.90;;;;;;4936369;29;20179;-69
2023/01/11 15:42:02;;;;;;;1.27;0.55;;;10.50;99.90;;;;;;4938447;29;20178;-69
2023/01/11 15:43:57;;;;;;;1.83;0.68;;;10.50;99.90;;;;;;4937547;29;20209;-69
2023/01/11 15:49:37;;;;;;;1.08;0.60;;;10.40;99.90;;;;;;4938283;29;20228;-69
2023/01/11 15:52:22;;;;;;;0.63;0.63;;;10.40;99.90;;;;;;4938082;29;20209;-69
2023/01/11 15:55:25;;;;;;;1.55;0.80;;;10.30;99.90;;;;;;4926146;29;20203;-70
2023/01/11 15:58:15;;;;;;;1.05;0.70;;;10.30;99.90;;;;;;4918821;29;20277;-69
2023/01/11 16:00:58;;;;;;;0.50;0.50;;;10.20;99.90;;;;;;4918807;29;20213;-68
2023/01/11 16:04:02;;;;;;;0.98;0.63;;;10.20;99.90;;;;;;4919722;29;20174;-69
2023/01/11 16:06:48;;;;;;;0.63;0.63;;;10.20;99.90;;;;;;4927970;29;20185;-69
2023/01/11 16:09:46;;;;;;;0.85;0.75;;;10.10;99.90;;;;;;4938168;29;20189;-69
2023/01/11 16:12:18;;;;;;;1.38;1.27;;;10.20;99.90;;;;;;4878053;29;20197;-69
2023/01/11 16:15:15;;;;;;;1.30;0.70;;;10.20;99.90;;;;;;4932719;29;20565;-69
2023/01/11 16:17:42;;;;;;;0.93;0.75;;;10.10;99.90;;;;;;4918779;29;20229;-69
2023/01/11 16:20:23;;;;;;;4.55;0.88;;;10.10;99.90;;;;;;4918614;29;20214;-69
2023/01/11 16:23:01;;;;;;;0.80;0.70;;;10.00;99.90;;;;;;4930319;29;20185;-69
2023/01/11 16:25:29;;;;;;;0.90;0.90;;;10.10;99.90;;;;;;4937219;29;20197;-69
2023/01/11 16:27:57;;;;;;;0.82;0.73;;;10.00;99.90;;;;;;4937540;29;20525;-69
2023/01/11 16:30:24;;;;;;;2.38;0.88;;;9.90;99.90;;;;;;4920554;29;20636;-69
2023/01/11 16:32:50;;;;;;;1.77;0.77;;;9.90;99.90;;;;;;4919709;29;20165;-68
2023/01/11 16:35:24;;;;;;;3.60;0.90;;;9.90;99.90;;;;;;4936849;29;20740;-68
2023/01/11 16:37:51;;;;;;;3.70;1.10;;;9.90;99.90;;;;;;4936979;29;20182;-69
2023/01/11 16:40:30;;;;;;;0.85;0.60;;;9.80;99.90;;;;;;4937179;29;20197;-69
2023/01/11 16:43:14;;;;;;;1.88;1.00;;;9.90;99.90;;;;;;4927892;29;20174;-69
2023/01/11 16:45:42;;;;;;;1.15;0.82;;;9.80;99.90;;;;;;4917906;29;20304;-71
2023/01/11 16:48:17;;;;;;;1.30;0.75;;;9.80;99.90;;;;;;4917924;29;20502;-68
2023/01/11 16:50:56;;;;;;;0.90;0.90;;;9.80;99.90;;;;;;4929875;29;20204;-68
2023/01/11 16:53:23;;;;;;;1.20;0.65;;;9.80;99.90;;;;;;4936662;29;20620;-67
2023/01/11 16:56:22;;;;;;;1.70;1.00;;;9.80;99.90;;;;;;4936767;29;20193;-68
2023/01/11 16:59:12;;;;;;;1.35;1.25;;;9.80;99.90;;;;;;4926115;29;20510;-69
2023/01/11 17:01:51;;;;;;;1.23;1.13;;;9.70;99.90;;;;;;4918071;29;20193;-69
2023/01/11 17:04:31;;;;;;;2.25;0.77;;;9.70;99.90;;;;;;4931857;29;20217;-70
2023/01/11 17:07:19;;;;;;;0.63;0.60;;;9.60;99.90;;;;;;4936764;29;20893;-72
2023/01/11 17:09:44;;;;;;;1.27;1.10;;;9.60;99.90;;;;;;4927150;29;20569;-71
2023/01/11 17:12:24;;;;;;;1.37;1.27;;;9.60;99.90;;;;;;4918802;29;20174;-72
2023/01/11 17:14:50;;;;;;;2.97;1.15;;;9.50;99.90;;;;;;4920963;29;20205;-69
2023/01/11 17:17:16;;;;;;;1.70;0.83;;;9.50;99.90;;;;;;4936391;29;20232;-71
2023/01/11 17:19:47;;;;;;;3.72;1.50;;;9.50;99.90;;;;;;4936480;29;20466;-70
2023/01/11 17:22:28;;;;;;;0.63;0.63;;;9.50;99.90;;;;;;4936521;29;20165;-71
2023/01/11 17:24:56;;;;;;;1.40;1.20;;;9.40;99.90;;;;;;4935906;29;20193;-72
2023/01/11 17:27:28;;;;;;;2.00;1.48;;;9.40;99.90;;;;;;4936526;29;20197;-72
2023/01/11 17:29:56;;;;;;;3.80;1.10;;;9.40;99.90;;;;;;4936091;29;20618;-72
2023/01/11 17:32:43;;;;;;;1.17;0.77;;;9.40;99.90;;;;;;4936195;29;20240;-72
2023/01/11 17:35:24;;;;;;;0.70;0.70;;;9.40;99.90;;;;;;4934590;29;20213;-72
2023/01/11 17:37:53;;;;;;;0.98;0.93;;;9.30;99.90;;;;;;4919309;29;20291;-72
2023/01/11 17:40:31;;;;;;;2.40;1.30;;;9.30;99.90;;;;;;4923198;29;20229;-72
2023/01/11 17:46:01;;;;;;;1.13;0.88;;;9.20;99.90;;;;;;4917235;29;20244;-71
2023/01/11 17:48:28;;;;;;;1.00;1.00;;;9.20;99.90;;;;;;4917114;29;20593;-70
2023/01/11 17:50:56;;;;;;;1.48;0.98;;;9.30;99.90;;;;;;4917185;29;20184;-70
2023/01/11 17:53:34;;;;;;;1.25;1.05;;;9.30;99.90;;;;;;4916611;29;20181;-71
2023/01/11 17:56:00;;;;;;;1.45;1.30;;;9.30;99.90;;;;;;4921039;29;20206;-71
2023/01/11 17:58:28;;;;;;;2.40;0.90;;;9.30;99.90;;;;;;4923555;29;20173;-72
2023/01/11 18:01:03;;;;;;;1.80;1.70;;;9.30;99.90;;;;;;4923362;29;20178;-70
2023/01/11 18:03:53;;;;;;;0.88;0.88;;;9.30;99.90;;;;;;4922828;29;20170;-70
2023/01/11 18:06:38;;;;;;;2.25;1.05;;;9.40;99.90;;;;;;4916289;29;20205;-71
2023/01/11 18:09:27;;;;;;;0.82;0.82;;;9.30;99.90;;;;;;4926508;29;20699;-72
2023/01/11 18:12:20;;;;;;;1.15;0.85;;;9.30;99.90;;;;;;4930656;29;20177;-71
2023/01/11 18:14:52;;;;;;;0.50;0.50;;;9.20;99.90;;;;;;4929809;29;20288;-72
2023/01/11 18:17:29;;;;;;;0.47;0.47;;;9.20;99.90;;;;;;4923658;29;20204;-69
2023/01/11 18:19:55;;;;;;;5.20;1.30;;;9.10;99.90;;;;;;4926189;29;20589;-69
2023/01/11 18:22:36;;;;;;;0.50;0.50;;;9.00;99.90;;;;;;4923135;29;20538;-74
2023/01/11 18:25:21;;;;;;;1.20;0.80;;;8.90;99.90;;;;;;4923052;29;20190;-71
2023/01/11 18:27:47;;;;;;;1.45;1.35;;;8.90;99.90;;;;;;4910664;29;20178;-67
2023/01/11 18:30:31;;;;;;;1.58;0.90;;;8.80;99.90;;;;;;4933305;29;20652;-71
2023/01/11 18:33:02;;;;;;;0.57;0.57;;;8.70;99.90;;;;;;4940130;29;20654;-67
2023/01/11 18:35:28;;;;;;;1.13;0.90;;;8.70;99.90;;;;;;4922794;29;20673;-68
2023/01/11 18:37:54;;;;;;;0.52;0.50;;;8.70;99.90;;;;;;4923190;29;20535;-69
2023/01/11 18:40:20;;;;;;;0.73;0.73;;;8.60;99.90;;;;;;4924403;29;20173;-69
2023/01/11 18:42:51;;;;;;;0.77;0.60;;;8.50;99.90;;;;;;4926710;29;20432;-68
2023/01/11 18:45:16;;;;;;;0.82;0.82;;;8.40;99.90;;;;;;4941390;29;20280;-68
2023/01/11 18:47:42;;;;;;;1.43;0.80;;;8.40;99.90;;;;;;4942026;29;20312;-67
2023/01/11 18:50:11;;;;;;;1.40;0.80;;;8.40;99.90;;;;;;4942047;29;20413;-68
2023/01/11 18:52:37;;;;;;;0.80;0.80;;;8.40;99.90;;;;;;4941475;29;20417;-69
2023/01/11 18:55:03;;;;;;;0.90;0.90;;;8.30;99.90;;;;;;4940035;29;20197;-69
2023/01/11 18:57:29;;;;;;;2.47;1.80;;;8.20;99.90;;;;;;4930988;29;20210;-68
2023/01/11 18:59:55;;;;;;;2.00;1.90;;;8.20;99.90;;;;;;4913896;29;20169;-69
2023/01/11 19:02:27;;;;;;;4.77;1.53;;;8.10;99.90;;;;;;4940137;29;20181;-68
2023/01/11 19:04:54;;;;;;;1.23;0.80;;;8.00;99.90;;;;;;4941346;29;20196;-68